Aérodrome :
LOGIN :

S'inscrire | Disclaimer

   EN    FR    IT 

 










Légende :    VFR   VFR Marginal   IFR   IFR Intensif   IFR Très Intensif
Visi : 
Plafond : 
>= 8 km
>= 3000ft
5 à 8 km
1000 à 3000 ft
1500m à 5 km
500 à 1000 ft
800 à 1500m
200 à 500 ft
< 800m
< 200 ft
Symboles :   Orages  Brouillard  Fortes neiges  Fortes précipitations  Vent > 20 kt
SIGMETs :   Divers  Orages  Givrage  Turbulence  Onde Orograph.  Cendres Volcan.







- Altitude de l'aérodrome : 233 ft
- Code IATA : REU


LERS - Reus Tarragona

DERNIER METAR :
  • 151230Z 15009KT 110V210 9999 FEW040 30/15 Q1017

METARs EXPIRÉS :
  • 151200Z VRB06KT 9999 FEW040 31/14 Q1017
  • 151130Z VRB05KT 9999 FEW040 30/15 Q1018
  • 151100Z 19006KT 120V260 9999 FEW050 30/15 Q1018
  • 151030Z 13005KT 080V250 9999 FEW050 29/13 Q1018
  • 151000Z VRB04KT 9999 FEW050 28/13 Q1018

TAF TAF LERS
Valide du 15 à 09h jusqu'au 16 à 09h UTC


150800Z 1509/1609 VRB04KT 9999 FEW030 TX31/1513Z TN21/1605Z
BECMG 1510/1512 14010KT
TEMPO 1514/1518 18009KT
BECMG 1518/1521 VRB03KT
TEMPO 1600/1609 FEW025CB
Pas de NOTAMs connus pour ce terrain.
1 SIGMET publié pour la FIR Barcelona (LECB) :
 
Orages noyés dans la masse
LECB SIGMET 1 VALID 151038/151300 LEVA
LECB BARCELONA FIR/UIR EMBD TS OBS AT 1038Z WI N39 W00007 - N3808 W00028 - N3757 E00016 - N3856 E00038 - N39 W00007 TOP FL380 STNR NC=



MET'MAP, la Météo Aéronautique d'un coup d'oeil ! - Copyright ORBIFLY Décembre 2007 - Disclaimer

ORBIFLY MET'MAP TEAM :

Programmation & Développement : Alexandra Zaïnal
Conception & Développement : Baudouin d'Aumeries
Co-Programmation & Développement : Marc-Olivier Méhu
Soutien technique & logistique : Manuel Goepfert

Contact : metmap@orbifly.com




SOURCES & CREDITS :

   NOAA